createdAt,value
2018-09-18T00:01:01.957Z,10.60
2018-09-18T00:03:31.250Z,9.87
2018-09-18T00:06:00.587Z,9.73
2018-09-18T00:08:29.989Z,28.63
2018-09-18T00:10:59.547Z,15.00
2018-09-18T00:13:28.851Z,18.77
2018-09-18T00:15:58.202Z,19.27
2018-09-18T00:18:28.495Z,19.90
2018-09-18T00:20:57.971Z,8.23
2018-09-18T00:23:27.557Z,20.50
2018-09-18T00:25:56.862Z,11.37
2018-09-18T00:28:26.155Z,8.53
2018-09-18T00:30:55.443Z,12.57
2018-09-18T00:33:24.988Z,8.63
2018-09-18T00:35:54.386Z,12.73
2018-09-18T00:38:23.682Z,21.50
2018-09-18T00:40:52.986Z,13.57
2018-09-18T00:43:22.363Z,9.20
2018-09-18T00:45:51.618Z,15.70
2018-09-18T00:48:21.023Z,17.37
2018-09-18T00:50:50.386Z,14.70
2018-09-18T00:53:19.675Z,18.83
2018-09-18T00:55:49.322Z,15.07
2018-09-18T00:58:18.615Z,10.63
2018-09-18T01:00:48.176Z,10.20
2018-09-18T01:03:17.513Z,8.53
2018-09-18T01:05:46.825Z,17.20
2018-09-18T01:08:16.287Z,17.53
2018-09-18T01:10:45.607Z,22.77
2018-09-18T01:13:15.053Z,8.30
2018-09-18T01:15:44.313Z,11.83
2018-09-18T01:18:13.723Z,10.57
2018-09-18T01:20:43.195Z,16.23
2018-09-18T01:23:12.459Z,15.80
2018-09-18T01:25:41.804Z,23.50
2018-09-18T01:28:11.090Z,14.53
2018-09-18T01:30:40.397Z,28.60
2018-09-18T01:33:09.862Z,18.70
2018-09-18T01:35:39.199Z,13.80
2018-09-18T01:38:08.597Z,14.10
2018-09-18T01:40:38.099Z,25.03
2018-09-18T01:43:07.486Z,15.67
2018-09-18T01:45:36.838Z,10.93
2018-09-18T01:48:06.416Z,14.93
2018-09-18T01:50:35.888Z,16.63
2018-09-18T01:53:05.282Z,13.80
2018-09-18T01:55:34.696Z,16.80
2018-09-18T01:58:04.006Z,12.90
2018-09-18T02:00:33.418Z,11.10
2018-09-18T02:03:03.056Z,20.07
2018-09-18T02:05:33.064Z,22.00
2018-09-18T02:08:02.615Z,11.20
2018-09-18T02:10:32.228Z,18.77
2018-09-18T02:13:02.163Z,15.27
2018-09-18T02:15:31.686Z,33.03
2018-09-18T02:18:01.293Z,17.40
2018-09-18T02:20:31.071Z,12.83
2018-09-18T02:23:00.781Z,10.53
2018-09-18T02:25:30.666Z,13.23
2018-09-18T02:28:00.275Z,22.00
2018-09-18T02:30:30.115Z,17.20
2018-09-18T02:32:59.798Z,17.10
2018-09-18T02:35:29.406Z,14.50
2018-09-18T02:37:59.254Z,15.93
2018-09-18T02:40:28.791Z,8.97
2018-09-18T02:42:58.331Z,27.67
2018-09-18T02:45:28.059Z,12.67
2018-09-18T02:47:57.948Z,16.90
2018-09-18T02:50:27.502Z,17.30
2018-09-18T02:52:57.087Z,10.47
2018-09-18T02:55:26.629Z,19.73
2018-09-18T02:57:56.119Z,27.33
2018-09-18T03:00:25.647Z,10.53
2018-09-18T03:02:55.531Z,26.43
2018-09-18T03:05:25.139Z,13.40
2018-09-18T03:07:54.908Z,14.83
2018-09-18T03:10:25.116Z,15.10
2018-09-18T03:12:54.896Z,15.07
2018-09-18T03:15:24.879Z,22.47
2018-09-18T03:17:54.437Z,14.40
2018-09-18T03:20:24.035Z,13.57
2018-09-18T03:22:53.681Z,12.50
2018-09-18T03:25:23.186Z,11.20
2018-09-18T03:27:52.675Z,15.00
2018-09-18T03:30:22.287Z,13.13
2018-09-18T03:32:52.149Z,15.57
2018-09-18T03:35:21.834Z,17.40
2018-09-18T03:37:51.348Z,12.33
2018-09-18T03:40:20.703Z,17.03
2018-09-18T03:42:50.319Z,14.90
2018-09-18T03:45:20.021Z,27.30
2018-09-18T03:47:49.424Z,19.97
2018-09-18T03:50:18.810Z,14.83
2018-09-18T03:52:48.267Z,10.87
2018-09-18T03:55:17.838Z,16.90
2018-09-18T03:57:47.250Z,13.90
2018-09-18T04:00:17.106Z,25.43
2018-09-18T04:02:46.601Z,10.60
2018-09-18T04:05:15.898Z,18.77
2018-09-18T04:07:45.324Z,16.77
2018-09-18T04:10:14.770Z,15.53
2018-09-18T04:12:44.170Z,14.90
2018-09-18T04:15:13.566Z,11.90
2018-09-18T04:17:43.827Z,12.43
2018-09-18T04:20:13.396Z,26.60
2018-09-18T04:22:42.818Z,13.70
2018-09-18T04:25:12.165Z,10.73
2018-09-18T04:27:41.455Z,17.50
2018-09-18T04:30:10.792Z,14.43
2018-09-18T04:32:40.155Z,11.27
2018-09-18T04:35:09.462Z,15.60
2018-09-18T04:37:38.809Z,13.20
2018-09-18T04:40:09.364Z,16.53
2018-09-18T04:42:38.737Z,9.83
2018-09-18T04:45:08.078Z,9.23
2018-09-18T04:47:37.505Z,23.70
2018-09-18T04:50:06.911Z,14.77
2018-09-18T04:52:36.456Z,16.37
2018-09-18T04:55:06.158Z,10.47
2018-09-18T04:57:35.497Z,13.97
2018-09-18T05:00:05.644Z,25.43
2018-09-18T05:02:35.420Z,30.20
2018-09-18T05:05:05.362Z,20.43
2018-09-18T05:07:34.732Z,20.23
2018-09-18T05:10:04.293Z,20.53
2018-09-18T05:12:33.635Z,9.40
2018-09-18T05:15:03.139Z,22.43
2018-09-18T05:17:33.027Z,11.60
2018-09-18T05:20:02.773Z,12.83
2018-09-18T05:22:32.188Z,13.63
2018-09-18T05:25:01.730Z,33.30
2018-09-18T05:27:30.995Z,20.40
2018-09-18T05:30:00.386Z,27.80
2018-09-18T05:32:29.703Z,21.20
2018-09-18T05:34:59.440Z,10.03
2018-09-18T05:37:28.798Z,16.03
2018-09-18T05:39:58.483Z,14.90
2018-09-18T05:42:27.855Z,15.47
2018-09-18T05:44:57.231Z,18.63
2018-09-18T05:47:26.862Z,30.20
2018-09-18T05:49:56.253Z,13.37
2018-09-18T05:52:25.652Z,13.93
2018-09-18T05:54:55.062Z,37.73
2018-09-18T05:57:24.465Z,34.33
2018-09-18T05:59:54.261Z,21.20
2018-09-18T06:02:23.757Z,11.23
2018-09-18T06:04:53.039Z,21.73
2018-09-18T06:07:22.532Z,12.27
2018-09-18T06:09:52.384Z,23.60
2018-09-18T06:12:21.745Z,18.00
2018-09-18T06:14:51.067Z,30.07
2018-09-18T06:17:20.506Z,25.07
2018-09-18T06:19:49.943Z,20.37
2018-09-18T06:22:19.410Z,17.70
2018-09-18T06:24:48.850Z,23.80
2018-09-18T06:27:18.291Z,26.47
2018-09-18T06:29:47.713Z,19.40
2018-09-18T06:32:17.276Z,28.10
2018-09-18T06:34:46.669Z,16.20
2018-09-18T06:37:16.171Z,30.80
2018-09-18T06:39:45.586Z,14.67
2018-09-18T06:42:14.927Z,13.47
2018-09-18T06:44:44.669Z,14.23
2018-09-18T06:47:14.032Z,26.97
2018-09-18T06:49:43.762Z,14.60
2018-09-18T06:52:13.101Z,19.63
2018-09-18T06:54:42.867Z,15.63
2018-09-18T06:57:12.237Z,16.17
2018-09-18T06:59:41.636Z,19.83
2018-09-18T07:02:11.448Z,14.90
2018-09-18T07:04:40.865Z,13.50
2018-09-18T07:07:10.282Z,10.30
2018-09-18T07:09:39.645Z,13.10
2018-09-18T07:12:09.110Z,17.77
2018-09-18T07:14:38.489Z,14.43
2018-09-18T07:17:08.617Z,24.10
2018-09-18T07:19:38.455Z,24.10
2018-09-18T07:22:07.935Z,9.20
2018-09-18T07:24:37.438Z,9.23
2018-09-18T07:27:06.836Z,11.87
2018-09-18T07:29:36.350Z,18.27
2018-09-18T07:32:05.747Z,19.33
2018-09-18T07:34:35.148Z,14.23
2018-09-18T07:37:04.631Z,11.80
2018-09-18T07:39:34.508Z,8.30
2018-09-18T07:42:04.077Z,11.03
2018-09-18T07:44:33.475Z,11.50
2018-09-18T07:47:02.952Z,18.33
2018-09-18T07:49:32.337Z,17.97
2018-09-18T07:52:01.757Z,12.63
2018-09-18T07:54:31.119Z,7.40
2018-09-18T07:57:00.513Z,10.80
2018-09-18T07:59:29.879Z,25.53
2018-09-18T08:01:59.662Z,13.97
2018-09-18T08:04:29.048Z,11.30
2018-09-18T08:06:58.456Z,12.67
2018-09-18T08:09:27.816Z,8.57
2018-09-18T08:11:57.254Z,11.60
2018-09-18T08:14:26.651Z,20.80
2018-09-18T08:16:56.201Z,9.87
2018-09-18T08:19:25.772Z,8.10
2018-09-18T08:21:55.510Z,5.43
2018-09-18T08:24:25.100Z,6.87
2018-09-18T08:26:54.575Z,5.53
2018-09-18T08:29:24.008Z,11.37
2018-09-18T08:31:53.531Z,15.00
2018-09-18T08:34:23.074Z,6.30
2018-09-18T08:36:52.725Z,11.60
2018-09-18T08:39:22.214Z,13.43
2018-09-18T08:41:51.609Z,5.63
2018-09-18T08:44:21.065Z,6.27
2018-09-18T08:46:50.990Z,9.30
2018-09-18T08:49:20.471Z,12.00
2018-09-18T08:51:49.938Z,6.10
2018-09-18T08:54:19.439Z,14.17
2018-09-18T08:56:48.828Z,19.93
2018-09-18T08:59:18.258Z,17.83
2018-09-18T09:01:47.752Z,10.60
2018-09-18T09:04:17.170Z,14.93
2018-09-18T09:06:46.639Z,13.80
2018-09-18T09:09:17.077Z,9.40
2018-09-18T09:11:46.831Z,7.50
2018-09-18T09:14:16.331Z,9.13
2018-09-18T09:16:45.658Z,15.90
2018-09-18T09:19:15.071Z,6.27
2018-09-18T09:21:44.533Z,4.33
2018-09-18T09:24:14.926Z,11.53
2018-09-18T09:26:44.424Z,19.53
2018-09-18T09:29:13.974Z,3.07
2018-09-18T09:31:43.819Z,19.17
2018-09-18T09:34:13.252Z,7.10
2018-09-18T09:36:42.635Z,9.00
2018-09-18T09:39:12.956Z,6.00
2018-09-18T09:41:42.338Z,14.77
2018-09-18T09:44:11.868Z,7.63
2018-09-18T09:46:41.367Z,3.60
2018-09-18T09:49:10.853Z,3.97
2018-09-18T09:51:40.409Z,2.70
2018-09-18T09:54:10.203Z,5.10
2018-09-18T09:56:39.733Z,9.40
2018-09-18T09:59:09.540Z,7.70
2018-09-18T10:01:47.904Z,12.00
2018-09-18T10:04:17.707Z,3.07
2018-09-18T10:06:47.257Z,8.00
2018-09-18T10:09:17.069Z,3.03
2018-09-18T10:11:46.622Z,6.20
2018-09-18T10:14:16.180Z,3.37
2018-09-18T10:16:45.597Z,3.40
2018-09-18T10:19:15.037Z,3.53
2018-09-18T10:21:44.492Z,9.60
2018-09-18T10:24:13.988Z,3.63
2018-09-18T10:26:43.340Z,16.13
2018-09-18T10:29:12.834Z,2.83
2018-09-18T10:31:42.744Z,8.60
2018-09-18T10:34:12.144Z,3.37
2018-09-18T10:36:41.721Z,3.23
2018-09-18T10:39:12.119Z,11.80
2018-09-18T10:41:41.652Z,3.47
2018-09-18T10:44:11.112Z,3.10
2018-09-18T10:46:40.511Z,6.53
2018-09-18T10:49:09.918Z,8.10
2018-09-18T10:51:39.307Z,7.47
2018-09-18T10:54:08.820Z,6.47
2018-09-18T10:56:38.366Z,3.07
2018-09-18T10:59:10.644Z,14.70
2018-09-18T11:01:39.980Z,10.77
2018-09-18T11:04:09.744Z,10.10
2018-09-18T11:06:39.297Z,3.00
2018-09-18T11:09:10.877Z,8.77
2018-09-18T11:11:41.885Z,3.33
2018-09-18T11:14:12.625Z,11.87
2018-09-18T11:16:42.803Z,3.20
2018-09-18T11:19:12.425Z,11.67
2018-09-18T11:21:42.123Z,5.13
2018-09-18T11:24:11.669Z,5.30
2018-09-18T11:26:41.195Z,3.37
2018-09-18T11:29:10.640Z,2.77
2018-09-18T11:31:40.240Z,17.90
2018-09-18T11:34:09.635Z,8.97
2018-09-18T11:36:39.250Z,9.23
2018-09-18T11:39:08.707Z,4.33
2018-09-18T11:41:38.282Z,3.30
2018-09-18T11:44:07.756Z,8.37
2018-09-18T11:46:37.243Z,7.40
2018-09-18T11:49:06.657Z,8.70
2018-09-18T11:51:36.040Z,5.80
2018-09-18T11:54:05.938Z,8.87
2018-09-18T11:56:35.361Z,5.93
2018-09-18T11:59:04.956Z,9.70
2018-09-18T12:01:34.576Z,10.47
2018-09-18T12:04:04.101Z,2.60
2018-09-18T12:06:34.125Z,4.70
2018-09-18T12:09:03.582Z,4.63
2018-09-18T12:11:32.898Z,2.53
2018-09-18T12:14:02.347Z,7.03
2018-09-18T12:16:32.319Z,2.77
2018-09-18T12:19:01.816Z,15.73
2018-09-18T12:21:32.121Z,18.47
2018-09-18T12:24:01.530Z,2.40
2018-09-18T12:26:30.933Z,3.57
2018-09-18T12:29:00.339Z,7.73
2018-09-18T12:31:29.723Z,3.00
2018-09-18T12:33:59.142Z,2.97
2018-09-18T12:36:28.559Z,3.27
2018-09-18T12:38:58.139Z,7.27
2018-09-18T12:41:27.601Z,3.60
2018-09-18T12:43:57.019Z,2.20
2018-09-18T12:46:26.430Z,2.53
2018-09-18T12:48:55.997Z,8.37
2018-09-18T12:51:25.398Z,4.17
2018-09-18T12:53:54.974Z,2.33
2018-09-18T12:56:24.754Z,16.13
2018-09-18T12:58:54.634Z,7.20
2018-09-18T13:01:24.115Z,2.50
2018-09-18T13:03:53.674Z,7.53
2018-09-18T13:06:23.148Z,4.40
2018-09-18T13:08:52.602Z,14.60
2018-09-18T13:11:22.495Z,7.93
2018-09-18T13:13:52.119Z,4.50
2018-09-18T13:16:21.829Z,2.23
2018-09-18T13:18:51.390Z,5.90
2018-09-18T13:21:20.832Z,6.37
2018-09-18T13:23:50.597Z,13.40
2018-09-18T13:26:20.203Z,4.97
2018-09-18T13:28:49.648Z,2.40
2018-09-18T13:31:19.101Z,9.27
2018-09-18T13:33:48.555Z,3.40
2018-09-18T13:36:17.997Z,9.87
2018-09-18T13:38:47.471Z,2.90
2018-09-18T13:41:17.056Z,2.60
2018-09-18T13:43:46.383Z,4.57
2018-09-18T13:46:16.398Z,5.13
2018-09-18T13:48:45.740Z,4.10
2018-09-18T13:51:15.137Z,2.50
2018-09-18T13:53:44.658Z,9.40
2018-09-18T13:56:14.244Z,8.67
2018-09-18T13:58:43.691Z,2.60
2018-09-18T14:01:13.239Z,3.10
2018-09-18T14:03:42.531Z,4.33
2018-09-18T14:06:11.930Z,2.97
2018-09-18T14:08:42.025Z,3.70
2018-09-18T14:11:11.353Z,9.43
2018-09-18T14:13:40.822Z,16.73
2018-09-18T14:16:10.670Z,2.97
2018-09-18T14:18:40.208Z,9.43
2018-09-18T14:21:10.059Z,2.73
2018-09-18T14:23:39.531Z,3.90
2018-09-18T14:26:09.224Z,3.93
2018-09-18T14:28:38.752Z,22.77
2018-09-18T14:31:08.691Z,3.80
2018-09-18T14:33:38.093Z,3.17
2018-09-18T14:36:07.625Z,3.87
2018-09-18T14:38:37.110Z,5.33
2018-09-18T14:41:06.647Z,4.90
2018-09-18T14:43:36.175Z,4.07
2018-09-18T14:46:05.534Z,7.50
2018-09-18T14:48:35.008Z,10.47
2018-09-18T14:51:04.539Z,5.73
2018-09-18T14:53:34.666Z,10.00
2018-09-18T14:56:04.316Z,3.50
2018-09-18T14:58:33.796Z,8.03
2018-09-18T15:01:03.304Z,6.60
2018-09-18T15:03:32.721Z,3.73
2018-09-18T15:06:02.032Z,17.77
2018-09-18T15:08:31.445Z,8.07
2018-09-18T15:11:00.797Z,3.77
2018-09-18T15:13:30.199Z,3.80
2018-09-18T15:15:59.869Z,10.83
2018-09-18T15:18:29.352Z,3.97
2018-09-18T15:20:59.309Z,7.10
2018-09-18T15:23:28.832Z,6.63
2018-09-18T15:25:58.271Z,5.03
2018-09-18T15:28:27.697Z,4.50
2018-09-18T15:30:57.079Z,4.60
2018-09-18T15:33:26.486Z,26.30
2018-09-18T15:35:55.943Z,18.87
2018-09-18T15:38:26.034Z,4.23
2018-09-18T15:40:55.499Z,4.27
2018-09-18T15:43:24.900Z,4.57
2018-09-18T15:45:55.488Z,18.10
2018-09-18T15:48:25.038Z,5.80
2018-09-18T15:50:54.616Z,6.03
2018-09-18T15:53:24.169Z,4.67
2018-09-18T15:55:53.594Z,13.30
2018-09-18T15:58:23.169Z,6.17
2018-09-18T16:00:53.021Z,5.27
2018-09-18T16:03:22.453Z,12.57
2018-09-18T16:05:52.058Z,18.07
2018-09-18T16:08:21.884Z,7.93
2018-09-18T16:10:51.476Z,5.23
2018-09-18T16:13:20.899Z,4.80
2018-09-18T16:15:50.403Z,5.57
2018-09-18T16:18:19.863Z,5.07
2018-09-18T16:20:49.350Z,7.93
2018-09-18T16:23:19.145Z,8.03
2018-09-18T16:25:48.631Z,12.50
2018-09-18T16:28:18.257Z,14.93
2018-09-18T16:30:47.832Z,13.27
2018-09-18T16:33:17.402Z,8.10
2018-09-18T16:35:47.476Z,11.00
2018-09-18T16:38:16.904Z,5.70
2018-09-18T16:40:46.330Z,8.13
2018-09-18T16:43:15.755Z,6.73
2018-09-18T16:45:45.592Z,5.07
2018-09-18T16:48:15.027Z,16.03
2018-09-18T16:50:44.502Z,13.17
2018-09-18T16:53:14.760Z,7.67
2018-09-18T16:55:44.278Z,8.10
2018-09-18T16:58:13.835Z,5.90
2018-09-18T17:00:43.400Z,11.93
2018-09-18T17:03:12.812Z,15.63
2018-09-18T17:05:42.259Z,6.80
2018-09-18T17:08:12.351Z,9.80
2018-09-18T17:10:41.976Z,26.37
2018-09-18T17:13:12.173Z,10.53
2018-09-18T17:15:41.537Z,12.60
2018-09-18T17:18:11.044Z,15.20
2018-09-18T17:20:40.710Z,15.43
2018-09-18T17:23:10.160Z,13.00
2018-09-18T17:25:39.753Z,21.10
2018-09-18T17:28:09.212Z,29.47
2018-09-18T17:30:39.104Z,21.27
2018-09-18T17:33:09.429Z,9.93
2018-09-18T17:35:39.039Z,12.70
2018-09-18T17:38:08.387Z,11.73
2018-09-18T17:40:37.818Z,30.73
2018-09-18T17:43:07.483Z,30.93
2018-09-18T17:45:36.995Z,13.27
2018-09-18T17:48:06.843Z,6.83
2018-09-18T17:50:36.315Z,10.47
2018-09-18T17:53:06.510Z,24.27
2018-09-18T17:55:35.962Z,17.23
2018-09-18T17:58:05.449Z,19.83
2018-09-18T18:00:35.339Z,8.87
2018-09-18T18:03:04.848Z,21.23
2018-09-18T18:05:34.345Z,27.53
2018-09-18T18:08:03.782Z,14.80
2018-09-18T18:10:33.431Z,17.30
2018-09-18T18:13:03.524Z,11.60
2018-09-18T18:15:33.503Z,16.90
2018-09-18T18:18:02.914Z,35.40
2018-09-18T18:20:32.751Z,30.13
2018-09-18T18:23:02.127Z,40.50
2018-09-18T18:25:31.585Z,21.33
2018-09-18T18:28:01.020Z,19.93
2018-09-18T18:30:30.477Z,28.60
2018-09-18T18:32:59.947Z,26.20
2018-09-18T18:35:29.470Z,44.77
2018-09-18T18:37:59.195Z,27.47
2018-09-18T18:40:28.980Z,27.40
2018-09-18T18:42:58.412Z,33.20
2018-09-18T18:45:28.261Z,33.17
2018-09-18T18:47:57.783Z,33.43
2018-09-18T18:50:27.406Z,27.20
2018-09-18T18:52:57.014Z,23.93
2018-09-18T18:55:26.807Z,26.87
2018-09-18T18:57:56.454Z,34.47
2018-09-18T19:00:26.646Z,28.50
2018-09-18T19:02:56.500Z,34.77
2018-09-18T19:05:26.077Z,16.33
2018-09-18T19:07:56.179Z,23.67
2018-09-18T19:10:25.628Z,14.33
2018-09-18T19:12:55.032Z,29.37
2018-09-18T19:15:24.846Z,28.07
2018-09-18T19:17:54.281Z,28.53
2018-09-18T19:20:24.602Z,31.63
2018-09-18T19:22:55.234Z,31.77
2018-09-18T19:25:24.760Z,18.00
2018-09-18T19:27:55.288Z,24.43
2018-09-18T19:30:27.340Z,21.83
2018-09-18T19:32:59.457Z,36.57
2018-09-18T19:35:29.058Z,15.90
2018-09-18T19:37:58.585Z,17.20
2018-09-18T19:40:28.575Z,26.23
2018-09-18T19:42:59.426Z,34.83
2018-09-18T19:45:30.817Z,24.43
2018-09-18T19:48:00.353Z,22.37
2018-09-18T19:50:30.423Z,30.07
2018-09-18T19:53:00.411Z,26.23
2018-09-18T19:55:29.844Z,29.23
2018-09-18T19:57:59.929Z,44.73
2018-09-18T20:00:29.988Z,18.50
2018-09-18T20:02:59.866Z,31.60
2018-09-18T20:05:30.350Z,20.33
2018-09-18T20:07:59.786Z,32.23
2018-09-18T20:10:29.399Z,40.30
2018-09-18T20:12:58.911Z,32.17
2018-09-18T20:15:29.093Z,24.57
2018-09-18T20:18:03.221Z,21.17
2018-09-18T20:20:34.020Z,27.00
2018-09-18T20:23:03.673Z,32.20
2018-09-18T20:25:33.435Z,21.17
2018-09-18T20:28:02.930Z,18.83
2018-09-18T20:30:32.597Z,52.40
2018-09-18T20:33:02.235Z,19.43
2018-09-18T20:35:32.017Z,16.60
2018-09-18T20:38:01.677Z,31.13
2018-09-18T20:40:31.333Z,19.43
2018-09-18T20:43:02.356Z,29.53
2018-09-18T20:45:31.960Z,30.93
2018-09-18T20:48:01.715Z,27.53
2018-09-18T20:50:31.298Z,21.30
2018-09-18T20:53:00.715Z,38.20
2018-09-18T20:55:30.248Z,25.63
2018-09-18T20:57:59.932Z,30.73
2018-09-18T21:00:29.547Z,25.27
2018-09-18T21:02:59.317Z,30.93
2018-09-18T21:05:29.062Z,26.73
2018-09-18T21:07:58.966Z,38.93
2018-09-18T21:10:28.934Z,21.80
2018-09-18T21:12:58.474Z,37.70
2018-09-18T21:15:29.274Z,34.57
2018-09-18T21:17:58.899Z,30.27
2018-09-18T21:20:29.284Z,19.97
2018-09-18T21:22:58.933Z,55.37
2018-09-18T21:25:39.545Z,50.87
2018-09-18T21:28:09.177Z,33.10
2018-09-18T21:30:38.854Z,52.63
2018-09-18T21:33:08.437Z,51.00
2018-09-18T21:35:37.796Z,36.27
2018-09-18T21:38:07.415Z,29.13
2018-09-18T21:40:37.065Z,24.43
2018-09-18T21:43:06.773Z,37.73
2018-09-18T21:45:36.387Z,35.90
2018-09-18T21:48:05.890Z,29.63
2018-09-18T21:50:38.570Z,33.10
2018-09-18T21:53:12.037Z,44.63
2018-09-18T21:55:42.219Z,32.30
2018-09-18T21:58:11.643Z,22.30
2018-09-18T22:00:41.670Z,28.83
2018-09-18T22:03:11.430Z,36.00
2018-09-18T22:05:41.076Z,26.07
2018-09-18T22:08:10.540Z,27.27
2018-09-18T22:10:41.594Z,28.97
2018-09-18T22:13:11.110Z,36.53
2018-09-18T22:15:40.805Z,33.27
2018-09-18T22:18:10.280Z,32.90
2018-09-18T22:20:39.990Z,31.13
2018-09-18T22:23:10.292Z,21.27
2018-09-18T22:25:39.961Z,29.43
2018-09-18T22:28:09.701Z,36.93
2018-09-18T22:30:39.111Z,23.93
2018-09-18T22:33:08.538Z,29.87
2018-09-18T22:35:37.923Z,41.43
2018-09-18T22:38:07.734Z,29.47
2018-09-18T22:40:37.130Z,25.13
2018-09-18T22:43:06.773Z,31.30
2018-09-18T22:45:36.552Z,30.83
2018-09-18T22:48:06.091Z,26.00
2018-09-18T22:50:35.524Z,24.57
2018-09-18T22:53:04.933Z,36.90
2018-09-18T22:55:34.337Z,33.13
2018-09-18T22:58:03.735Z,31.93
2018-09-18T23:00:33.142Z,35.47
2018-09-18T23:03:02.744Z,32.33
2018-09-18T23:05:32.534Z,33.93
2018-09-18T23:08:02.166Z,32.13
2018-09-18T23:10:31.645Z,37.97
2018-09-18T23:13:01.066Z,42.70
2018-09-18T23:15:30.571Z,33.43
2018-09-18T23:18:00.133Z,34.63
2018-09-18T23:20:36.033Z,26.83
2018-09-18T23:23:05.415Z,32.93
2018-09-18T23:25:35.116Z,29.13
2018-09-18T23:28:04.894Z,28.83
2018-09-18T23:30:34.315Z,21.77
2018-09-18T23:33:03.842Z,35.87
2018-09-18T23:35:33.302Z,35.00
2018-09-18T23:38:03.191Z,29.23
2018-09-18T23:40:32.722Z,24.63
2018-09-18T23:43:02.108Z,27.27
2018-09-18T23:45:31.436Z,25.80
2018-09-18T23:48:00.861Z,26.37
2018-09-18T23:50:30.607Z,22.33
2018-09-18T23:53:00.012Z,30.80
2018-09-18T23:55:29.881Z,29.80
2018-09-18T23:57:59.347Z,29.70
